This is the latest recevied weather packets stored in our database for station/object JQ3CCU-10. If no packets are shown the sender has not sent any weather packets the latest 10 day(s).
| Time | Temp. | Humidity | Pressure | Rain* | Wind** | Luminosity | Snow |
|---|---|---|---|---|---|---|---|
| 1778122455 | 27.22° C | 53% | - | - | 0 m/s | - | - |
| 1778120655 | 28.33° C | 48% | - | - | 0 m/s | - | - |
| 1778118855 | 29.44° C | 45% | - | - | 0 m/s | - | - |
| 1778117055 | 30° C | 43% | - | - | 0 m/s | - | - |
| 1778115255 | 31.67° C | 40% | - | - | 0 m/s | - | - |
| 1778113455 | 31.67° C | 40% | - | - | 0 m/s | - | - |
| 1778111655 | 25° C | 50% | - | - | 0 m/s | - | - |
| 1778109855 | 23.89° C | 59% | - | - | 0 m/s | - | - |
| 1778108055 | 23.89° C | 59% | - | - | 0 m/s | - | - |
| 1778106255 | 21.11° C | 61% | - | - | 0 m/s | - | - |
| 1778104455 | 20.56° C | 64% | - | - | 0 m/s | - | - |
| 1778102655 | 20° C | 65% | - | - | 0 m/s | - | - |
| 1778100855 | 20° C | 73% | - | - | 0 m/s | - | - |
| 1778099055 | 20° C | 65% | - | - | 0 m/s | - | - |
| 1778097255 | 20° C | 65% | - | - | 0 m/s | - | - |
| 1778095455 | 20° C | 66% | - | - | 0 m/s | - | - |
| 1778093655 | 20° C | 66% | - | - | 0 m/s | - | - |
| 1778091855 | 20° C | 66% | - | - | 0 m/s | - | - |
| 1778090055 | 20° C | 66% | - | - | 0 m/s | - | - |
| 1778088255 | 20° C | 73% | - | - | 0 m/s | - | - |
| 1778086455 | 20° C | 73% | - | - | 0 m/s | - | - |
| 1778084655 | 20° C | 72% | - | - | 0 m/s | - | - |
| 1778082855 | 20° C | 72% | - | - | 0 m/s | - | - |
| 1778081055 | 20.56° C | 64% | - | - | 0 m/s | - | - |
| 1778079255 | 20.56° C | 64% | - | - | 0 m/s | - | - |
* Rain since midnight (hover to see other rain measurements)
** Current wind speed in m/s (hover to see current wind gust speed)